Time;durP1;ratioP1;P1;durP2;ratioP2;P2;SDS_P1;SDS_P2;PMS_P1;PMS_P2;Temp;Humidity;BMP_temperature;BMP_pressure;BME280_temperature;BME280_humidity;BME280_pressure;Samples;Min_cycle;Max_cycle;Signal;HPM_P1;HPM_P2
2022/05/18 00:00:38;;;;;;;;;;;;;;;11.11;45.29;101185.31;105923;1271;22639;-59
2022/05/18 00:03:12;;;;;;;;;;;;;;;11.06;45.46;101190.73;105896;1271;25395;-58
2022/05/18 00:05:42;;;;;;;;;;;;;;;11.02;45.42;101196.85;106070;1270;22534;-60
2022/05/18 00:08:12;;;;;;;;;;;;;;;10.99;45.48;101200.20;105879;1271;23819;-59
2022/05/18 00:10:44;;;;;;;;;;;;;;;10.95;45.36;101198.09;105981;1271;25358;-59
2022/05/18 00:13:14;;;;;;;;;;;;;;;10.91;45.28;101206.06;105953;1271;22662;-59
2022/05/18 00:15:44;;;;;;;;;;;;;;;10.88;45.24;101206.23;105770;1271;22506;-58
2022/05/18 00:18:14;;;;;;;;;;;;;;;10.83;45.33;101208.64;105873;1271;22513;-59
2022/05/18 00:20:44;;;;;;;;;;;;;;;10.78;45.34;101212.56;105969;1271;22520;-60
2022/05/18 00:23:13;;;;;;;;;;;;;;;10.73;45.34;101211.17;105830;1271;24409;-59
2022/05/18 00:25:43;;;;;;;;;;;;;;;10.65;45.27;101216.34;105964;1271;25330;-59
2022/05/18 00:28:13;;;;;;;;;;;;;;;10.57;45.55;101220.54;105912;1271;22506;-59
2022/05/18 00:30:42;;;;;;;;;;;;;;;10.54;45.66;101226.25;106105;1271;22525;-55
2022/05/18 00:33:12;;;;;;;;;;;;;;;10.51;45.67;101223.56;106106;1269;22863;-61
2022/05/18 00:35:42;;;;;;;;;;;;;;;10.44;45.56;101229.63;106375;1271;22529;-62
2022/05/18 00:38:12;;;;;;;;;;;;;;;10.38;45.65;101232.66;105844;1271;22555;-56
2022/05/18 00:40:44;;;;;;;;;;;;;;;10.31;45.72;101235.77;105952;1271;22525;-59
2022/05/18 00:43:18;;;;;;;;;;;;;;;10.27;45.86;101240.13;106160;1271;25540;-59
2022/05/18 00:45:48;;;;;;;;;;;;;;;10.25;45.86;101240.15;105808;1271;22531;-59
2022/05/18 00:48:18;;;;;;;;;;;;;;;10.22;46.01;101241.52;105747;1272;25602;-58
2022/05/18 00:50:48;;;;;;;;;;;;;;;10.20;46.15;101243.17;105847;1271;22538;-59
2022/05/18 00:53:19;;;;;;;;;;;;;;;10.17;45.98;101243.15;105800;1271;22533;-56
2022/05/18 00:55:51;;;;;;;;;;;;;;;10.10;46.00;101247.28;105897;1271;25369;-58
2022/05/18 00:58:21;;;;;;;;;;;;;;;10.05;46.16;101255.08;105914;1271;22656;-59
2022/05/18 01:00:51;;;;;;;;;;;;;;;9.99;46.02;101250.77;105702;1271;22506;-59
2022/05/18 01:03:23;;;;;;;;;;;;;;;9.94;46.20;101254.19;105691;1271;24251;-58
2022/05/18 01:05:55;;;;;;;;;;;;;;;9.91;46.42;101257.08;105553;1271;24338;-60
2022/05/18 01:08:32;;;;;;;;;;;;;;;9.88;46.28;101258.77;106127;1271;22527;-58
2022/05/18 01:11:02;;;;;;;;;;;;;;;9.83;46.43;101259.14;105826;1271;23212;-58
2022/05/18 01:13:31;;;;;;;;;;;;;;;9.75;46.28;101261.68;105889;1271;22976;-57
2022/05/18 01:16:01;;;;;;;;;;;;;;;9.68;46.39;101265.35;105812;1271;25433;-59
2022/05/18 01:18:31;;;;;;;;;;;;;;;9.62;46.74;101270.16;105885;1271;24225;-59
2022/05/18 01:21:00;;;;;;;;;;;;;;;9.59;46.81;101277.44;105822;1271;22509;-59
2022/05/18 01:23:38;;;;;;;;;;;;;;;9.53;46.85;101277.30;105934;1271;22662;-59
2022/05/18 01:26:17;;;;;;;;;;;;;;;9.48;46.98;101279.77;105595;1271;25256;-60
2022/05/18 01:28:51;;;;;;;;;;;;;;;9.41;46.97;101280.95;105915;1271;25637;-58
2022/05/18 01:31:38;;;;;;;;;;;;;;;9.35;47.09;101285.52;105953;1271;22509;-59
2022/05/18 01:34:08;;;;;;;;;;;;;;;9.29;47.20;101286.36;105883;1271;22534;-59
2022/05/18 01:36:37;;;;;;;;;;;;;;;9.20;47.37;101287.83;105786;1270;22504;-58
2022/05/18 01:39:10;;;;;;;;;;;;;;;9.17;47.62;101287.04;105854;1271;23049;-58
2022/05/18 01:41:45;;;;;;;;;;;;;;;9.15;47.68;101289.48;105804;1271;22588;-57
2022/05/18 01:44:15;;;;;;;;;;;;;;;9.11;47.82;101291.05;105908;1271;22508;-56
2022/05/18 01:46:46;;;;;;;;;;;;;;;9.07;47.80;101295.88;105814;1271;24321;-59
2022/05/18 01:49:15;;;;;;;;;;;;;;;9.01;47.99;101299.45;105894;1271;25216;-58
2022/05/18 01:51:47;;;;;;;;;;;;;;;8.95;48.10;101308.13;105835;1271;22537;-58
2022/05/18 01:54:17;;;;;;;;;;;;;;;8.89;48.18;101317.39;105820;1271;23245;-59
2022/05/18 01:56:46;;;;;;;;;;;;;;;8.86;48.42;101317.16;106010;1270;23233;-57
2022/05/18 01:59:16;;;;;;;;;;;;;;;8.83;48.60;101319.95;105751;1271;22525;-58
2022/05/18 02:01:46;;;;;;;;;;;;;;;8.82;48.75;101320.39;105992;1271;22509;-59
2022/05/18 02:04:16;;;;;;;;;;;;;;;8.78;48.87;101314.12;105842;1271;22535;-57
2022/05/18 02:06:46;;;;;;;;;;;;;;;8.75;48.74;101319.20;105885;1271;22629;-60
2022/05/18 02:09:19;;;;;;;;;;;;;;;8.71;48.86;101320.38;105922;1271;24478;-56
2022/05/18 02:11:51;;;;;;;;;;;;;;;8.68;48.99;101325.09;105829;1271;22540;-55
2022/05/18 02:14:20;;;;;;;;;;;;;;;8.62;48.85;101327.39;105774;1271;25331;-57
2022/05/18 02:16:50;;;;;;;;;;;;;;;8.52;49.04;101325.05;105695;1271;25354;-58
2022/05/18 02:19:20;;;;;;;;;;;;;;;8.44;49.09;101325.17;105637;1271;22510;-57
2022/05/18 02:21:50;;;;;;;;;;;;;;;8.38;49.14;101328.11;105676;1271;22509;-57
2022/05/18 02:24:20;;;;;;;;;;;;;;;8.32;49.37;101328.85;105744;1271;25322;-58
2022/05/18 02:26:49;;;;;;;;;;;;;;;8.25;49.32;101341.02;105762;1271;25229;-59
2022/05/18 02:29:20;;;;;;;;;;;;;;;8.16;49.47;101342.08;105948;1271;22539;-58
2022/05/18 02:31:49;;;;;;;;;;;;;;;8.10;49.64;101346.86;105866;1271;22550;-58
2022/05/18 02:34:19;;;;;;;;;;;;;;;8.05;49.69;101348.35;106025;1271;22509;-56
2022/05/18 02:36:49;;;;;;;;;;;;;;;8.01;49.86;101351.14;105862;1271;25225;-60
2022/05/18 02:39:21;;;;;;;;;;;;;;;7.96;50.09;101351.74;105857;1271;22530;-58
2022/05/18 02:41:50;;;;;;;;;;;;;;;7.95;50.16;101356.22;105862;1271;22548;-57
2022/05/18 02:44:20;;;;;;;;;;;;;;;7.92;50.27;101359.55;105322;1271;576303;-56
2022/05/18 02:46:50;;;;;;;;;;;;;;;7.87;50.42;101365.38;105741;1271;25347;-57
2022/05/18 02:49:19;;;;;;;;;;;;;;;7.82;50.57;101371.63;106485;1261;22522;-50
2022/05/18 02:51:49;;;;;;;;;;;;;;;7.75;50.66;101376.07;105754;1270;25391;-50
2022/05/18 02:57:07;;;;;;;;;;;;;;;7.65;50.97;101380.52;105963;1270;22539;-49
2022/05/18 02:59:37;;;;;;;;;;;;;;;7.60;51.02;101382.77;108358;1271;22756;-48
2022/05/18 03:02:07;;;;;;;;;;;;;;;7.54;51.07;101387.17;106137;1272;22644;-48
2022/05/18 03:04:37;;;;;;;;;;;;;;;7.51;51.19;101386.30;105968;1271;25352;-48
2022/05/18 03:07:07;;;;;;;;;;;;;;;7.47;51.23;101390.38;105883;1271;24234;-48
2022/05/18 03:09:36;;;;;;;;;;;;;;;7.37;51.38;101389.47;105942;1271;25292;-49
2022/05/18 03:12:07;;;;;;;;;;;;;;;7.22;51.59;101393.04;106035;1272;22494;-49
2022/05/18 03:14:37;;;;;;;;;;;;;;;7.11;51.91;101403.17;105801;1271;22511;-48
2022/05/18 03:17:06;;;;;;;;;;;;;;;7.02;51.97;101406.05;105903;1271;24525;-48
2022/05/18 03:19:36;;;;;;;;;;;;;;;6.97;52.12;101408.79;106067;1271;22623;-49
2022/05/18 03:24:53;;;;;;;;;;;;;;;6.80;52.40;101414.96;105660;1271;25523;-48
2022/05/18 03:27:22;;;;;;;;;;;;;;;6.73;52.58;101416.70;105967;1271;24324;-48
2022/05/18 03:29:52;;;;;;;;;;;;;;;6.65;52.77;101419.77;106011;1272;25148;-49
2022/05/18 03:32:22;;;;;;;;;;;;;;;6.58;53.03;101423.23;105942;1272;25977;-49
2022/05/18 03:34:52;;;;;;;;;;;;;;;6.50;53.16;101427.88;105849;1271;22575;-50
2022/05/18 03:37:23;;;;;;;;;;;;;;;6.43;53.44;101434.98;105939;1271;22545;-48
2022/05/18 03:39:52;;;;;;;;;;;;;;;6.38;53.55;101433.63;105946;1271;22577;-49
2022/05/18 03:42:22;;;;;;;;;;;;;;;6.37;53.63;101433.80;105927;1271;24269;-48
2022/05/18 03:44:51;;;;;;;;;;;;;;;6.36;53.85;101436.84;105809;1271;22521;-48
2022/05/18 03:47:21;;;;;;;;;;;;;;;6.35;53.89;101437.81;105690;1271;22592;-49
2022/05/18 03:49:51;;;;;;;;;;;;;;;6.33;54.03;101444.02;106015;1271;22526;-48
2022/05/18 03:52:20;;;;;;;;;;;;;;;6.31;54.28;101453.00;106007;1271;22610;-48
2022/05/18 03:54:50;;;;;;;;;;;;;;;6.28;54.43;101458.28;105958;1271;25356;-47
2022/05/18 03:57:20;;;;;;;;;;;;;;;6.28;54.44;101465.65;105835;1271;22522;-50
2022/05/18 03:59:50;;;;;;;;;;;;;;;6.31;54.61;101463.23;105812;1271;25334;-52
2022/05/18 04:02:21;;;;;;;;;;;;;;;6.34;54.73;101464.14;105829;1271;22522;-52
2022/05/18 04:04:50;;;;;;;;;;;;;;;6.36;54.78;101470.35;106024;1271;22524;-49
2022/05/18 04:07:20;;;;;;;;;;;;;;;6.40;54.83;101465.94;105993;1271;22505;-49
2022/05/18 04:09:50;;;;;;;;;;;;;;;6.44;55.04;101464.20;105816;1273;24003;-53
2022/05/18 04:12:19;;;;;;;;;;;;;;;6.49;55.01;101462.86;106121;1271;25739;-49
2022/05/18 04:14:51;;;;;;;;;;;;;;;6.54;55.19;101463.40;106048;1271;22516;-50
2022/05/18 04:17:21;;;;;;;;;;;;;;;6.61;55.29;101465.42;105788;1271;22529;-49
2022/05/18 04:19:50;;;;;;;;;;;;;;;6.68;55.37;101465.78;105843;1271;22526;-51
2022/05/18 04:22:23;;;;;;;;;;;;;;;6.75;55.34;101469.07;106086;1271;23501;-51
2022/05/18 04:24:53;;;;;;;;;;;;;;;6.80;55.31;101470.48;106118;1271;24221;-51
2022/05/18 04:27:23;;;;;;;;;;;;;;;6.84;55.27;101475.55;105910;1271;22524;-49
2022/05/18 04:29:53;;;;;;;;;;;;;;;6.89;55.27;101474.27;105835;1271;22548;-48
2022/05/18 04:32:23;;;;;;;;;;;;;;;6.95;55.46;101475.74;105898;1271;25302;-48
2022/05/18 04:34:53;;;;;;;;;;;;;;;7.00;55.38;101475.36;106025;1271;22537;-48
2022/05/18 04:37:23;;;;;;;;;;;;;;;7.06;55.43;101476.12;106100;1271;25554;-49
2022/05/18 04:39:52;;;;;;;;;;;;;;;7.14;55.59;101477.21;105791;1271;22527;-50
2022/05/18 04:42:22;;;;;;;;;;;;;;;7.26;55.41;101481.36;105859;1271;22519;-51
2022/05/18 04:44:52;;;;;;;;;;;;;;;7.36;55.60;101481.78;106243;1271;24239;-48
2022/05/18 04:47:22;;;;;;;;;;;;;;;7.48;55.57;101487.36;106345;1271;25532;-49
2022/05/18 04:49:52;;;;;;;;;;;;;;;7.61;55.56;101493.13;106098;1271;23952;-49
2022/05/18 04:52:22;;;;;;;;;;;;;;;7.73;55.41;101490.55;105875;1271;22630;-51
2022/05/18 04:54:52;;;;;;;;;;;;;;;7.88;55.03;101494.52;105620;1271;25356;-49
2022/05/18 04:57:22;;;;;;;;;;;;;;;8.00;54.97;101499.98;105906;1271;22847;-50
2022/05/18 04:59:52;;;;;;;;;;;;;;;8.10;54.87;101494.25;105877;1271;22515;-50
2022/05/18 05:02:22;;;;;;;;;;;;;;;8.24;54.98;101495.94;105745;1271;22557;-53
2022/05/18 05:04:51;;;;;;;;;;;;;;;8.38;54.74;101498.88;105756;1271;22550;-49
2022/05/18 05:07:21;;;;;;;;;;;;;;;8.49;54.78;101500.86;106248;1271;22536;-50
2022/05/18 05:09:50;;;;;;;;;;;;;;;8.63;54.71;101505.70;106189;1271;22507;-49
2022/05/18 05:12:20;;;;;;;;;;;;;;;8.76;54.57;101504.87;106170;1271;22539;-51
2022/05/18 05:14:50;;;;;;;;;;;;;;;8.91;54.43;101511.64;105993;1271;25373;-51
2022/05/18 05:17:20;;;;;;;;;;;;;;;9.08;54.36;101511.04;105943;1271;22531;-50
2022/05/18 05:19:49;;;;;;;;;;;;;;;9.21;54.02;101510.05;107572;1271;22550;-49
2022/05/18 05:22:19;;;;;;;;;;;;;;;9.33;53.69;101510.68;105745;1271;23117;-48
2022/05/18 05:24:48;;;;;;;;;;;;;;;9.45;53.38;101510.81;105978;1271;24249;-49
2022/05/18 05:27:18;;;;;;;;;;;;;;;9.58;52.93;101510.98;105891;1271;22534;-51
2022/05/18 05:29:47;;;;;;;;;;;;;;;9.65;53.11;101511.19;106250;1271;22533;-51
2022/05/18 05:32:17;;;;;;;;;;;;;;;9.77;53.09;101515.39;106222;1271;25540;-52
2022/05/18 05:34:47;;;;;;;;;;;;;;;9.88;52.80;101521.84;106040;1271;22683;-50
2022/05/18 05:37:16;;;;;;;;;;;;;;;9.97;52.58;101522.92;105797;1273;25459;-50
2022/05/18 05:39:46;;;;;;;;;;;;;;;10.06;52.37;101522.49;105853;1272;24109;-49
2022/05/18 05:42:15;;;;;;;;;;;;;;;10.16;52.32;101526.52;105644;1271;24372;-49
2022/05/18 05:44:45;;;;;;;;;;;;;;;10.32;51.90;101523.15;105766;1271;24326;-50
2022/05/18 05:47:15;;;;;;;;;;;;;;;10.46;51.88;101527.40;105859;1271;24224;-48
2022/05/18 05:49:45;;;;;;;;;;;;;;;10.61;51.59;101528.45;105907;1271;23212;-49
2022/05/18 05:52:14;;;;;;;;;;;;;;;10.72;51.22;101531.44;105669;1271;24336;-49
2022/05/18 05:54:44;;;;;;;;;;;;;;;10.80;51.27;101531.09;105953;1271;22512;-48
2022/05/18 05:57:14;;;;;;;;;;;;;;;10.91;51.09;101530.63;106221;1271;22705;-52
2022/05/18 05:59:44;;;;;;;;;;;;;;;10.99;50.83;101534.21;105777;1273;22558;-50
2022/05/18 06:02:15;;;;;;;;;;;;;;;11.06;50.43;101534.20;106814;1271;25333;-48
2022/05/18 06:04:46;;;;;;;;;;;;;;;11.16;50.64;101533.36;105743;1271;24215;-48
2022/05/18 06:07:16;;;;;;;;;;;;;;;11.30;50.41;101530.65;105786;1271;24646;-48
2022/05/18 06:09:46;;;;;;;;;;;;;;;11.42;50.42;101530.85;105786;1271;22510;-49
2022/05/18 06:12:16;;;;;;;;;;;;;;;11.52;49.78;101533.85;105857;1271;22965;-49
2022/05/18 06:14:46;;;;;;;;;;;;;;;11.57;49.64;101533.44;105747;1271;22619;-50
2022/05/18 06:17:15;;;;;;;;;;;;;;;11.62;49.50;101537.09;105849;1271;22510;-50
2022/05/18 06:19:45;;;;;;;;;;;;;;;11.70;49.36;101540.58;105997;1271;24444;-49
2022/05/18 06:22:15;;;;;;;;;;;;;;;11.79;49.24;101547.50;105797;1271;26458;-49
2022/05/18 06:24:47;;;;;;;;;;;;;;;11.89;48.99;101546.95;105799;1271;24428;-50
2022/05/18 06:27:17;;;;;;;;;;;;;;;11.93;48.59;101543.30;105707;1271;22521;-49
2022/05/18 06:29:48;;;;;;;;;;;;;;;11.97;48.92;101548.53;106235;1271;25023;-50
2022/05/18 06:32:18;;;;;;;;;;;;;;;12.07;48.72;101553.62;105768;1271;26462;-50
2022/05/18 06:34:49;;;;;;;;;;;;;;;12.19;48.77;101554.15;105839;1271;24413;-48
2022/05/18 06:37:19;;;;;;;;;;;;;;;12.25;48.26;101554.39;106249;1271;26711;-48
2022/05/18 06:39:49;;;;;;;;;;;;;;;12.29;48.14;101555.83;105952;1271;22529;-48
2022/05/18 06:42:18;;;;;;;;;;;;;;;12.35;48.21;101555.45;105747;1271;24340;-49
2022/05/18 06:44:49;;;;;;;;;;;;;;;12.38;47.97;101553.96;105706;1273;22537;-49
2022/05/18 06:47:19;;;;;;;;;;;;;;;12.47;47.98;101559.79;105662;1271;25452;-49
2022/05/18 06:49:48;;;;;;;;;;;;;;;12.59;47.83;101565.14;105779;1271;25270;-53
2022/05/18 06:52:18;;;;;;;;;;;;;;;12.67;47.62;101564.02;105885;1271;22536;-50
2022/05/18 06:54:48;;;;;;;;;;;;;;;12.76;47.33;101566.58;105787;1271;24315;-50
2022/05/18 06:57:18;;;;;;;;;;;;;;;12.83;47.09;101571.10;105779;1272;24831;-51
2022/05/18 06:59:48;;;;;;;;;;;;;;;12.86;46.90;101573.61;105691;1274;22596;-47
2022/05/18 07:02:17;;;;;;;;;;;;;;;12.87;46.44;101577.23;105847;1271;22512;-48
2022/05/18 07:04:47;;;;;;;;;;;;;;;12.87;46.54;101581.83;105916;1271;25501;-48
2022/05/18 07:07:17;;;;;;;;;;;;;;;12.93;46.51;101581.34;105735;1271;26085;-49
2022/05/18 07:09:47;;;;;;;;;;;;;;;12.98;46.61;101578.70;105688;1271;22592;-48
2022/05/18 07:12:16;;;;;;;;;;;;;;;13.05;46.43;101578.67;105764;1271;22519;-51
2022/05/18 07:14:46;;;;;;;;;;;;;;;13.14;46.37;101583.64;105735;1271;27469;-50
2022/05/18 07:17:15;;;;;;;;;;;;;;;13.23;45.96;101587.02;105847;1271;22576;-48
2022/05/18 07:19:45;;;;;;;;;;;;;;;13.28;45.59;101586.80;105658;1271;23810;-49
2022/05/18 07:22:15;;;;;;;;;;;;;;;13.31;45.72;101589.24;105768;1271;22685;-49
2022/05/18 07:24:45;;;;;;;;;;;;;;;13.38;45.50;101590.83;106008;1272;22512;-49
2022/05/18 07:27:15;;;;;;;;;;;;;;;13.49;45.71;101590.52;105708;1271;22534;-53
2022/05/18 07:29:45;;;;;;;;;;;;;;;13.57;45.45;101590.25;105725;1271;25367;-50
2022/05/18 07:32:16;;;;;;;;;;;;;;;13.62;45.19;101591.40;105753;1271;24309;-53
2022/05/18 07:34:47;;;;;;;;;;;;;;;13.69;45.00;101589.96;105600;1271;22536;-49
2022/05/18 07:37:18;;;;;;;;;;;;;;;13.72;44.70;101591.44;105662;1271;23054;-51
2022/05/18 07:39:48;;;;;;;;;;;;;;;13.76;44.77;101592.46;105754;1272;25385;-48
2022/05/18 07:42:18;;;;;;;;;;;;;;;13.83;44.30;101593.42;105738;1271;25402;-48
2022/05/18 07:44:48;;;;;;;;;;;;;;;13.89;43.98;101590.86;105649;1271;24309;-50
2022/05/18 07:47:18;;;;;;;;;;;;;;;13.96;44.22;101589.88;105712;1271;24922;-50
2022/05/18 07:49:48;;;;;;;;;;;;;;;14.04;43.42;101586.30;105721;1272;22510;-52
2022/05/18 07:52:17;;;;;;;;;;;;;;;14.09;43.58;101594.73;105686;1271;22541;-49
2022/05/18 07:54:47;;;;;;;;;;;;;;;14.19;43.85;101587.79;105708;1271;25270;-49
2022/05/18 07:57:18;;;;;;;;;;;;;;;14.27;43.45;101588.77;105763;1271;23035;-52
2022/05/18 07:59:47;;;;;;;;;;;;;;;14.35;42.92;101592.02;105993;1271;25333;-53
2022/05/18 08:02:17;;;;;;;;;;;;;;;14.37;42.73;101587.37;105791;1271;22570;-49
2022/05/18 08:04:47;;;;;;;;;;;;;;;14.42;42.86;101585.50;105801;1272;22548;-48
2022/05/18 08:07:17;;;;;;;;;;;;;;;14.49;42.66;101585.23;105778;1271;23937;-50
2022/05/18 08:15:21;;;;;;;;;;;;;;;14.64;41.73;101583.48;105662;1271;22609;-50
2022/05/18 08:17:51;;;;;;;;;;;;;;;14.70;41.82;101584.58;105780;1271;22927;-52
2022/05/18 08:20:22;;;;;;;;;;;;;;;14.76;41.26;101589.02;105730;1271;22628;-50
2022/05/18 08:22:52;;;;;;;;;;;;;;;14.80;40.85;101588.35;105781;1271;22532;-51
2022/05/18 08:25:22;;;;;;;;;;;;;;;14.87;40.87;101589.19;105816;1271;22582;-51
2022/05/18 08:27:52;;;;;;;;;;;;;;;14.92;40.57;101590.69;105724;1271;25272;-52
2022/05/18 08:30:22;;;;;;;;;;;;;;;15.00;40.44;101595.61;105792;1271;24996;-52
2022/05/18 08:32:52;;;;;;;;;;;;;;;15.05;40.50;101593.64;105899;1271;22582;-50
2022/05/18 08:35:22;;;;;;;;;;;;;;;15.11;39.81;101599.40;105845;1271;25229;-51
2022/05/18 08:37:52;;;;;;;;;;;;;;;15.11;39.58;101596.11;106244;1271;24470;-53
2022/05/18 08:40:32;;;;;;;;;;;;;;;15.20;39.26;101599.23;105953;1271;22519;-49
2022/05/18 08:43:03;;;;;;;;;;;;;;;15.23;38.97;101593.93;105814;1271;22713;-51
2022/05/18 08:45:34;;;;;;;;;;;;;;;15.25;39.09;101597.45;105999;1271;25381;-52
2022/05/18 08:48:07;;;;;;;;;;;;;;;15.34;39.51;101596.05;106166;1271;22829;-51
2022/05/18 08:50:38;;;;;;;;;;;;;;;15.42;39.28;101585.28;106387;1262;22470;-61
2022/05/18 08:53:17;;;;;;;;;;;;;;;15.51;38.99;101586.86;106532;1270;22533;-61
2022/05/18 08:55:53;;;;;;;;;;;;;;;15.62;38.85;101592.30;107047;1271;25442;-61
2022/05/18 08:58:39;;;;;;;;;;;;;;;15.75;38.70;101593.39;106333;1270;23748;-61
2022/05/18 09:01:13;;;;;;;;;;;;;;;15.81;37.90;101588.85;106270;1271;24369;-62
2022/05/18 09:03:44;;;;;;;;;;;;;;;15.83;38.13;101583.45;106212;1271;24243;-62
2022/05/18 09:06:18;;;;;;;;;;;;;;;15.87;37.62;101585.48;106137;1271;22520;-61
2022/05/18 09:10:12;;;;;;;;;;;;;;;15.86;36.99;101579.27;106079;1271;25398;-61
2022/05/18 09:11:42;;;;;;;;;;;;;;;15.86;37.31;101585.62;106153;1271;24233;-61
2022/05/18 09:14:14;;;;;;;;;;;;;;;15.95;37.51;101585.46;106162;1271;24098;-60
2022/05/18 09:16:45;;;;;;;;;;;;;;;16.08;37.60;101584.69;106356;1271;26328;-61
2022/05/18 09:19:20;;;;;;;;;;;;;;;16.20;37.40;101589.66;106286;1271;22524;-62
2022/05/18 09:21:54;;;;;;;;;;;;;;;16.22;36.67;101582.83;106273;1271;22544;-62
2022/05/18 09:24:33;;;;;;;;;;;;;;;16.19;36.64;101576.48;106121;1271;25228;-62
2022/05/18 09:27:09;;;;;;;;;;;;;;;16.18;36.57;101579.91;106168;1271;22521;-62
2022/05/18 09:29:41;;;;;;;;;;;;;;;16.18;36.21;101580.89;106358;1271;22608;-61
2022/05/18 09:32:17;;;;;;;;;;;;;;;16.18;36.03;101586.55;106121;1271;22571;-62
2022/05/18 09:34:58;;;;;;;;;;;;;;;16.20;35.99;101587.87;106204;1271;24424;-62
2022/05/18 09:37:32;;;;;;;;;;;;;;;16.24;36.01;101588.15;106211;1271;24946;-62
2022/05/18 09:40:08;;;;;;;;;;;;;;;16.33;36.11;101587.32;106316;1271;22528;-62
2022/05/18 09:42:39;;;;;;;;;;;;;;;16.46;35.48;101583.86;106221;1271;22561;-62
2022/05/18 09:45:12;;;;;;;;;;;;;;;16.53;35.83;101582.20;106216;1271;22552;-61
2022/05/18 09:47:47;;;;;;;;;;;;;;;16.67;35.40;101590.17;106174;1271;25278;-62
2022/05/18 09:50:17;;;;;;;;;;;;;;;16.72;34.83;101587.52;106300;1271;25369;-62
2022/05/18 09:52:47;;;;;;;;;;;;;;;16.71;34.79;101590.94;106167;1271;22519;-61
2022/05/18 09:55:19;;;;;;;;;;;;;;;16.68;34.52;101587.05;106192;1271;22519;-62
2022/05/18 09:57:51;;;;;;;;;;;;;;;16.63;34.25;101586.27;106140;1271;24218;-62
2022/05/18 10:00:22;;;;;;;;;;;;;;;16.58;33.91;101583.71;106201;1271;23024;-62
2022/05/18 10:08:31;;;;;;;;;;;;;;;16.88;34.61;101578.73;106151;1271;23250;-62
2022/05/18 10:11:03;;;;;;;;;;;;;;;16.99;34.15;101574.80;106142;1271;24400;-61
2022/05/18 10:13:35;;;;;;;;;;;;;;;17.11;34.15;101576.36;105927;1272;23087;-62
2022/05/18 10:16:06;;;;;;;;;;;;;;;17.24;34.01;101572.67;106235;1271;22519;-62
2022/05/18 10:18:41;;;;;;;;;;;;;;;17.34;33.77;101573.07;106064;1271;22524;-62
2022/05/18 10:21:19;;;;;;;;;;;;;;;17.38;33.08;101568.34;106204;1271;25247;-62
2022/05/18 10:23:55;;;;;;;;;;;;;;;17.36;32.56;101562.98;106097;1272;24223;-62
2022/05/18 10:26:27;;;;;;;;;;;;;;;17.31;32.54;101558.39;106395;1271;23064;-61
2022/05/18 10:29:00;;;;;;;;;;;;;;;17.24;32.47;101560.66;106163;1271;22711;-62
2022/05/18 10:31:34;;;;;;;;;;;;;;;17.25;32.96;101562.79;106242;1271;22527;-61
2022/05/18 10:34:15;;;;;;;;;;;;;;;17.38;32.92;101564.09;106160;1271;24304;-63
2022/05/18 10:36:48;;;;;;;;;;;;;;;17.51;31.98;101562.42;106017;1271;23166;-62
2022/05/18 10:39:31;;;;;;;;;;;;;;;17.45;30.97;101556.64;106166;1271;22506;-62
2022/05/18 10:42:02;;;;;;;;;;;;;;;17.30;31.31;101555.15;106145;1271;25357;-62
2022/05/18 10:44:35;;;;;;;;;;;;;;;17.31;31.49;101552.75;105951;1271;23181;-62
2022/05/18 10:47:29;;;;;;;;;;;;;;;17.38;31.51;101551.15;106071;1271;25254;-62
2022/05/18 10:50:24;;;;;;;;;;;;;;;17.54;31.73;101547.31;105660;1277;27450;-62
2022/05/18 10:52:55;;;;;;;;;;;;;;;17.68;31.35;101547.73;105663;1277;22540;-62
2022/05/18 10:55:28;;;;;;;;;;;;;;;17.70;31.27;101544.52;105787;1277;24266;-63
2022/05/18 10:58:00;;;;;;;;;;;;;;;17.76;31.49;101538.88;105730;1277;22676;-62
2022/05/18 11:00:35;;;;;;;;;;;;;;;17.85;31.23;101535.17;105697;1278;22615;-62
2022/05/18 11:03:09;;;;;;;;;;;;;;;17.89;30.55;101538.59;105797;1277;22538;-62
2022/05/18 11:05:44;;;;;;;;;;;;;;;17.91;30.64;101538.92;105728;1278;25806;-62
2022/05/18 11:08:16;;;;;;;;;;;;;;;17.91;30.75;101537.22;105718;1277;22525;-62
2022/05/18 11:10:49;;;;;;;;;;;;;;;17.96;30.91;101535.59;105681;1276;23921;-62
2022/05/18 11:13:22;;;;;;;;;;;;;;;18.06;30.84;101531.25;105877;1277;22531;-61
2022/05/18 11:16:02;;;;;;;;;;;;;;;18.10;30.43;101525.17;105620;1277;22744;-63
2022/05/18 11:18:39;;;;;;;;;;;;;;;18.16;30.53;101529.44;105734;1278;24291;-63
2022/05/18 11:21:13;;;;;;;;;;;;;;;18.23;30.36;101523.50;105604;1278;24180;-64
2022/05/18 11:23:48;;;;;;;;;;;;;;;18.23;30.10;101519.54;105721;1277;23995;-63
2022/05/18 11:26:25;;;;;;;;;;;;;;;18.28;30.35;101516.18;105722;1276;22756;-62
2022/05/18 11:28:58;;;;;;;;;;;;;;;18.37;30.02;101513.83;105942;1271;22550;-62
2022/05/18 11:31:42;;;;;;;;;;;;;;;18.41;29.47;101513.61;105885;1271;22536;-63
2022/05/18 11:34:17;;;;;;;;;;;;;;;18.38;29.27;101510.55;106020;1271;25229;-62
2022/05/18 11:36:54;;;;;;;;;;;;;;;18.43;29.72;101508.40;106077;1271;22526;-63
2022/05/18 11:39:31;;;;;;;;;;;;;;;18.56;29.10;101507.88;105895;1271;24343;-62
2022/05/18 11:42:12;;;;;;;;;;;;;;;18.57;28.09;101505.98;106134;1271;25250;-62
2022/05/18 11:44:45;;;;;;;;;;;;;;;18.48;28.30;101499.80;105920;1271;22509;-63
2022/05/18 11:47:34;;;;;;;;;;;;;;;18.44;27.88;101493.75;106204;1271;24296;-62
2022/05/18 11:50:10;;;;;;;;;;;;;;;18.39;27.77;101491.48;106003;1271;24428;-62
2022/05/18 11:52:58;;;;;;;;;;;;;;;18.35;27.59;101491.20;105936;1271;24262;-63
2022/05/18 11:55:35;;;;;;;;;;;;;;;18.35;27.47;101493.00;106093;1271;26002;-64
2022/05/18 11:58:08;;;;;;;;;;;;;;;18.44;27.14;101491.48;106011;1271;24374;-62
2022/05/18 12:00:47;;;;;;;;;;;;;;;18.58;27.65;101487.11;106164;1271;25128;-63
2022/05/18 12:03:33;;;;;;;;;;;;;;;18.67;27.21;101485.61;106000;1271;23164;-62
2022/05/18 12:06:15;;;;;;;;;;;;;;;18.71;27.57;101483.07;106025;1271;22565;-64
2022/05/18 12:09:03;;;;;;;;;;;;;;;18.85;27.71;101484.69;105994;1271;25297;-62
2022/05/18 12:11:36;;;;;;;;;;;;;;;18.94;27.47;101486.02;106053;1271;25454;-63
2022/05/18 12:14:12;;;;;;;;;;;;;;;18.97;27.41;101480.90;105974;1271;24323;-62
2022/05/18 12:16:58;;;;;;;;;;;;;;;18.98;26.96;101480.70;105938;1271;22470;-63
2022/05/18 12:19:32;;;;;;;;;;;;;;;18.94;26.57;101476.05;106113;1271;24434;-62
2022/05/18 12:22:04;;;;;;;;;;;;;;;18.86;26.43;101478.79;106123;1271;22589;-63
2022/05/18 12:24:36;;;;;;;;;;;;;;;18.80;26.53;101477.77;106155;1270;22506;-63
2022/05/18 12:27:06;;;;;;;;;;;;;;;18.88;26.39;101476.02;106176;1271;25237;-63
2022/05/18 12:29:37;;;;;;;;;;;;;;;18.89;26.10;101473.95;106145;1271;25482;-63
2022/05/18 12:32:09;;;;;;;;;;;;;;;18.89;26.16;101468.31;106174;1271;22564;-63
2022/05/18 12:34:44;;;;;;;;;;;;;;;18.91;26.24;101472.38;105941;1271;22534;-63
2022/05/18 12:37:24;;;;;;;;;;;;;;;18.94;26.55;101477.48;105914;1271;22522;-63
2022/05/18 12:40:07;;;;;;;;;;;;;;;19.02;26.90;101475.67;106030;1271;22523;-63
2022/05/18 12:42:40;;;;;;;;;;;;;;;19.11;26.63;101471.73;105926;1271;25382;-63
2022/05/18 12:45:14;;;;;;;;;;;;;;;19.13;26.47;101466.14;105990;1271;22581;-63
2022/05/18 12:47:48;;;;;;;;;;;;;;;19.07;26.11;101465.45;105905;1271;24288;-62
2022/05/18 12:50:20;;;;;;;;;;;;;;;19.07;26.19;101464.00;105888;1271;24217;-63
2022/05/18 12:52:54;;;;;;;;;;;;;;;19.10;26.26;101466.34;105831;1273;22589;-63
2022/05/18 12:55:35;;;;;;;;;;;;;;;19.17;26.20;101461.52;106140;1274;25256;-63
2022/05/18 12:58:24;;;;;;;;;;;;;;;19.26;26.24;101459.33;105874;1273;22745;-62
2022/05/18 13:01:00;;;;;;;;;;;;;;;19.36;26.27;101457.02;105839;1273;25438;-63
2022/05/18 13:03:44;;;;;;;;;;;;;;;19.39;25.99;101453.73;105970;1274;26700;-66
2022/05/18 13:06:15;;;;;;;;;;;;;;;19.45;26.12;101454.67;105719;1274;22866;-62
2022/05/18 13:09:07;;;;;;;;;;;;;;;19.49;25.34;101455.45;106165;1274;25249;-63
2022/05/18 13:11:46;;;;;;;;;;;;;;;19.50;25.77;101455.66;105968;1273;25389;-63